createdAt,value
2023-02-15T00:01:48.567Z,45.72
2023-02-15T00:04:16.394Z,45.05
2023-02-15T00:06:43.063Z,45.70
2023-02-15T00:09:10.953Z,48.55
2023-02-15T00:11:40.742Z,46.17
2023-02-15T00:14:18.294Z,42.17
2023-02-15T00:16:45.840Z,44.05
2023-02-15T00:19:15.364Z,42.65
2023-02-15T00:21:42.944Z,43.08
2023-02-15T00:24:10.686Z,42.60
2023-02-15T00:26:38.958Z,43.10
2023-02-15T00:29:08.595Z,41.45
2023-02-15T00:31:35.480Z,41.20
2023-02-15T00:34:03.892Z,41.40
2023-02-15T00:36:30.620Z,39.05
2023-02-15T00:38:57.397Z,40.10
2023-02-15T00:41:24.415Z,35.83
2023-02-15T00:43:51.150Z,34.72
2023-02-15T00:46:20.110Z,35.60
2023-02-15T00:48:46.860Z,33.58
2023-02-15T00:51:13.888Z,37.60
2023-02-15T00:53:40.858Z,37.22
2023-02-15T00:56:08.214Z,39.45
2023-02-15T00:58:35.061Z,42.08
2023-02-15T01:01:04.439Z,42.38
2023-02-15T01:03:31.189Z,41.45
2023-02-15T01:05:57.845Z,41.22
2023-02-15T01:08:24.709Z,41.95
2023-02-15T01:10:52.307Z,38.90
2023-02-15T01:13:19.815Z,39.42
2023-02-15T01:15:46.899Z,42.10
2023-02-15T01:18:13.706Z,41.78
2023-02-15T01:20:42.188Z,40.72
2023-02-15T01:23:09.856Z,40.95
2023-02-15T01:25:37.032Z,38.75
2023-02-15T01:28:03.980Z,40.25
2023-02-15T01:30:30.737Z,41.75
2023-02-15T01:32:57.598Z,41.75
2023-02-15T01:35:27.104Z,38.38
2023-02-15T01:37:55.141Z,39.72
2023-02-15T01:40:21.946Z,38.92
2023-02-15T01:42:51.222Z,39.03
2023-02-15T01:45:37.313Z,38.95
2023-02-15T01:48:12.203Z,40.33
2023-02-15T01:50:49.943Z,38.67
2023-02-15T01:53:29.072Z,37.33
2023-02-15T01:55:59.670Z,36.15
2023-02-15T01:58:28.441Z,36.10
2023-02-15T02:00:55.772Z,35.03
2023-02-15T02:03:29.068Z,36.95
2023-02-15T02:05:55.714Z,35.97
2023-02-15T02:08:22.449Z,37.42
2023-02-15T02:10:49.145Z,35.85
2023-02-15T02:13:19.351Z,36.35
2023-02-15T02:15:53.460Z,36.55
2023-02-15T02:18:20.216Z,34.78
2023-02-15T02:21:05.949Z,35.40
2023-02-15T02:23:55.628Z,35.03
2023-02-15T02:26:31.182Z,34.17
2023-02-15T02:28:58.980Z,33.30
2023-02-15T02:31:39.829Z,33.55
2023-02-15T02:34:06.596Z,32.53
2023-02-15T02:36:39.057Z,33.67
2023-02-15T02:39:18.106Z,30.33
2023-02-15T02:41:44.770Z,30.77
2023-02-15T02:44:11.441Z,29.55
2023-02-15T02:46:43.142Z,30.80
2023-02-15T02:49:12.420Z,29.65
2023-02-15T02:51:39.156Z,32.22
2023-02-15T02:54:08.761Z,30.52
2023-02-15T02:56:39.984Z,28.83
2023-02-15T02:59:11.662Z,32.00
2023-02-15T03:01:47.703Z,29.90
2023-02-15T03:04:16.506Z,32.22
2023-02-15T03:06:49.659Z,33.88
2023-02-15T03:11:45.404Z,33.78
2023-02-15T03:14:14.318Z,34.63
2023-02-15T03:16:43.923Z,31.45
2023-02-15T03:19:18.571Z,33.67
2023-02-15T03:21:58.334Z,31.65
2023-02-15T03:24:27.741Z,31.48
2023-02-15T03:26:55.140Z,33.10
2023-02-15T03:29:24.860Z,30.23
2023-02-15T03:31:54.883Z,30.85
2023-02-15T03:34:21.746Z,30.67
2023-02-15T03:36:54.444Z,32.90
2023-02-15T03:39:22.190Z,31.88
2023-02-15T03:42:06.665Z,35.17
2023-02-15T03:44:37.450Z,31.90
2023-02-15T03:47:10.111Z,34.00
2023-02-15T03:49:58.952Z,38.63
2023-02-15T03:52:27.150Z,39.20
2023-02-15T03:54:54.387Z,39.92
2023-02-15T03:57:41.705Z,39.88
2023-02-15T04:00:33.690Z,37.75
2023-02-15T04:03:03.640Z,42.03
2023-02-15T04:05:30.410Z,39.85
2023-02-15T04:07:57.080Z,37.58
2023-02-15T04:10:42.954Z,39.92
2023-02-15T04:13:10.845Z,39.88
2023-02-15T04:15:56.043Z,37.67
2023-02-15T04:18:22.733Z,36.95
2023-02-15T04:21:08.235Z,38.75
2023-02-15T04:23:53.732Z,38.95
2023-02-15T04:26:20.405Z,41.20
2023-02-15T04:28:47.076Z,38.45
2023-02-15T04:31:13.864Z,39.95
2023-02-15T04:33:40.611Z,39.13
2023-02-15T04:36:07.394Z,38.85
2023-02-15T04:38:34.156Z,40.55
2023-02-15T04:41:00.865Z,39.22
2023-02-15T04:43:27.889Z,41.28
2023-02-15T04:45:54.615Z,41.17
2023-02-15T04:48:21.625Z,42.45
2023-02-15T04:50:48.482Z,40.85
2023-02-15T04:53:17.490Z,44.25
2023-02-15T04:55:44.505Z,42.47
2023-02-15T04:58:11.654Z,43.15
2023-02-15T05:00:38.637Z,44.85
2023-02-15T05:03:05.814Z,44.40
2023-02-15T05:05:32.507Z,44.35
2023-02-15T05:07:59.206Z,41.70
2023-02-15T05:10:26.155Z,42.53
2023-02-15T05:12:53.129Z,41.20
2023-02-15T05:15:19.834Z,41.30
2023-02-15T05:17:46.540Z,40.95
2023-02-15T05:20:15.308Z,41.55
2023-02-15T05:22:42.072Z,41.25
2023-02-15T05:25:28.358Z,42.10
2023-02-15T05:28:13.420Z,40.17
2023-02-15T05:30:41.656Z,40.42
2023-02-15T05:33:08.652Z,41.80
2023-02-15T05:35:36.244Z,39.17
2023-02-15T05:38:02.956Z,40.45
2023-02-15T05:40:30.750Z,39.42
2023-02-15T05:42:58.432Z,37.55
2023-02-15T05:45:25.553Z,36.83
2023-02-15T05:47:52.297Z,36.28
2023-02-15T05:50:19.800Z,35.70
2023-02-15T05:52:51.288Z,35.85
2023-02-15T05:55:19.556Z,36.92
2023-02-15T05:57:47.187Z,35.80
2023-02-15T06:00:15.069Z,36.97
2023-02-15T06:02:42.354Z,37.97
2023-02-15T06:05:11.573Z,38.13
2023-02-15T06:07:38.478Z,38.78
2023-02-15T06:10:06.009Z,36.53
2023-02-15T06:12:34.419Z,36.80
2023-02-15T06:15:01.126Z,36.83
2023-02-15T06:17:27.944Z,39.88
2023-02-15T06:19:54.709Z,39.13
2023-02-15T06:22:21.613Z,39.53
2023-02-15T06:24:49.415Z,38.05
2023-02-15T06:27:22.045Z,36.83
2023-02-15T06:29:49.754Z,37.60
2023-02-15T06:32:22.166Z,34.58
2023-02-15T06:34:52.262Z,35.10
2023-02-15T06:37:19.665Z,39.33
2023-02-15T06:39:53.802Z,37.15
2023-02-15T06:42:29.043Z,37.83
2023-02-15T06:45:01.303Z,37.05
2023-02-15T06:47:29.046Z,41.00
2023-02-15T06:49:55.812Z,41.08
2023-02-15T06:52:23.861Z,39.00
2023-02-15T06:54:50.542Z,39.83
2023-02-15T06:57:23.183Z,42.85
2023-02-15T06:59:56.217Z,46.90
2023-02-15T07:02:22.899Z,40.67
2023-02-15T07:04:49.741Z,37.83
2023-02-15T07:07:19.392Z,37.65
2023-02-15T07:09:48.638Z,39.28
2023-02-15T07:12:33.925Z,43.58
2023-02-15T07:15:01.096Z,42.55
2023-02-15T07:17:37.086Z,43.25
2023-02-15T07:20:10.374Z,45.25
2023-02-15T07:22:43.948Z,46.40
2023-02-15T07:25:26.608Z,41.95
2023-02-15T07:28:16.575Z,44.03
2023-02-15T07:31:10.969Z,46.90
2023-02-15T07:33:42.450Z,49.42
2023-02-15T07:36:43.231Z,53.17
2023-02-15T07:50:28.253Z,53.42
2023-02-15T07:56:07.279Z,54.75
2023-02-15T07:58:54.037Z,53.47
2023-02-15T08:01:27.558Z,52.35
2023-02-15T08:04:15.772Z,51.33
2023-02-15T08:06:44.062Z,53.22
2023-02-15T08:09:19.810Z,51.53
2023-02-15T08:11:57.509Z,52.33
2023-02-15T08:14:26.606Z,53.60
2023-02-15T08:16:57.280Z,55.00
2023-02-15T08:19:25.310Z,56.65
2023-02-15T08:22:01.838Z,55.13
2023-02-15T08:24:33.731Z,55.15
2023-02-15T08:27:00.860Z,55.63
2023-02-15T08:29:31.125Z,56.95
2023-02-15T08:32:04.057Z,55.58
2023-02-15T08:34:38.909Z,55.08
2023-02-15T08:37:09.944Z,56.47
2023-02-15T08:39:42.290Z,55.92
2023-02-15T08:42:15.111Z,57.90
2023-02-15T08:45:01.268Z,53.90
2023-02-15T08:47:35.927Z,55.15
2023-02-15T08:50:09.110Z,55.03
2023-02-15T08:55:22.923Z,56.30
2023-02-15T08:57:56.825Z,57.67
2023-02-15T09:00:28.012Z,57.28
2023-02-15T09:03:00.475Z,59.25
2023-02-15T09:05:29.252Z,58.78
2023-02-15T09:07:57.745Z,56.53
2023-02-15T09:10:27.129Z,56.58
2023-02-15T09:13:04.824Z,57.15
2023-02-15T09:15:36.227Z,56.47
2023-02-15T09:18:18.074Z,54.50
2023-02-15T09:20:46.153Z,55.05
2023-02-15T09:23:27.183Z,54.15
2023-02-15T09:26:12.312Z,56.88
2023-02-15T09:28:43.476Z,55.13
2023-02-15T09:31:56.665Z,56.38
2023-02-15T09:34:24.532Z,54.67
2023-02-15T09:36:55.580Z,56.92
2023-02-15T09:39:29.493Z,56.30
2023-02-15T09:42:10.146Z,58.00
2023-02-15T09:44:57.971Z,57.72
2023-02-15T09:47:33.382Z,59.65
2023-02-15T09:50:19.487Z,58.35
2023-02-15T09:53:14.930Z,61.85
2023-02-15T09:55:51.954Z,61.67
2023-02-15T09:59:02.712Z,63.33
2023-02-15T10:01:47.008Z,62.55
2023-02-15T10:04:33.068Z,61.40
2023-02-15T10:07:17.250Z,61.88
2023-02-15T10:10:09.456Z,59.92
2023-02-15T10:12:56.916Z,61.20
2023-02-15T10:15:41.099Z,63.42
2023-02-15T10:18:40.260Z,61.80
2023-02-15T10:21:13.917Z,60.53
2023-02-15T10:26:27.171Z,60.67
2023-02-15T10:29:08.081Z,59.40
2023-02-15T10:31:52.899Z,60.00
2023-02-15T10:34:44.569Z,60.38
2023-02-15T10:37:22.559Z,56.22
2023-02-15T10:40:24.244Z,59.28
2023-02-15T10:42:59.932Z,58.13
2023-02-15T10:45:28.957Z,57.35
2023-02-15T10:48:05.444Z,59.55
2023-02-15T10:51:02.543Z,57.38
2023-02-15T10:53:52.781Z,56.78
2023-02-15T10:56:33.821Z,58.20
2023-02-15T10:59:14.074Z,55.22
2023-02-15T11:01:55.614Z,58.90
2023-02-15T11:04:44.707Z,64.97
2023-02-15T11:07:19.362Z,61.75
2023-02-15T11:10:23.779Z,60.50
2023-02-15T11:12:56.076Z,61.28
2023-02-15T11:15:33.023Z,56.80
2023-02-15T11:18:05.030Z,60.67
2023-02-15T11:20:39.774Z,60.03
2023-02-15T11:23:17.835Z,55.75
2023-02-15T11:26:00.582Z,60.00
2023-02-15T11:28:41.157Z,58.90
2023-02-15T11:31:31.107Z,61.13
2023-02-15T11:34:13.380Z,60.45
2023-02-15T11:36:41.680Z,64.53
2023-02-15T11:39:18.433Z,61.80
2023-02-15T11:41:56.129Z,63.50
2023-02-15T11:44:32.675Z,61.78
2023-02-15T11:47:01.697Z,63.88
2023-02-15T11:49:31.772Z,60.88
2023-02-15T11:51:59.431Z,66.65
2023-02-15T11:54:28.941Z,63.85
2023-02-15T11:57:32.211Z,64.88
2023-02-15T12:00:45.995Z,64.25
2023-02-15T12:04:27.591Z,62.35
2023-02-15T12:07:39.094Z,62.83
2023-02-15T12:10:08.267Z,66.38
2023-02-15T12:12:36.285Z,61.53
2023-02-15T12:15:11.164Z,61.50
2023-02-15T12:17:42.888Z,63.33
2023-02-15T12:20:15.980Z,63.20
2023-02-15T12:22:51.301Z,61.97
2023-02-15T12:25:37.462Z,62.60
2023-02-15T12:28:05.727Z,60.45
2023-02-15T12:30:35.973Z,65.63
2023-02-15T12:33:06.493Z,67.75
2023-02-15T12:35:37.557Z,64.38
2023-02-15T12:38:21.261Z,63.63
2023-02-15T12:41:23.155Z,64.35
2023-02-15T12:44:03.432Z,64.22
2023-02-15T12:46:30.648Z,65.63
2023-02-15T12:49:36.241Z,64.03
2023-02-15T12:52:05.186Z,63.30
2023-02-15T12:54:32.548Z,61.55
2023-02-15T12:57:00.469Z,64.53
2023-02-15T12:59:28.195Z,65.10
2023-02-15T13:01:55.853Z,61.80
2023-02-15T13:04:25.474Z,59.30
2023-02-15T13:06:53.660Z,56.95
2023-02-15T13:09:32.942Z,61.40
2023-02-15T13:12:20.349Z,61.92
2023-02-15T13:14:48.435Z,60.25
2023-02-15T13:17:17.800Z,60.03
2023-02-15T13:19:51.220Z,60.70
2023-02-15T13:22:24.547Z,59.03
2023-02-15T13:24:54.681Z,62.95
2023-02-15T13:27:41.628Z,59.58
2023-02-15T13:30:38.339Z,60.95
2023-02-15T13:33:30.822Z,61.10
2023-02-15T13:36:15.858Z,62.13
2023-02-15T13:38:45.407Z,60.33
2023-02-15T13:41:28.836Z,61.20
2023-02-15T13:44:16.689Z,61.78
2023-02-15T13:47:05.593Z,62.75
2023-02-15T13:49:53.278Z,63.08
2023-02-15T13:52:25.105Z,59.92
2023-02-15T13:55:18.380Z,64.38
2023-02-15T13:58:01.185Z,60.92
2023-02-15T14:01:04.687Z,64.55
2023-02-15T14:03:52.132Z,59.63
2023-02-15T14:06:49.487Z,64.70
2023-02-15T14:09:24.893Z,60.55
2023-02-15T14:11:53.823Z,60.83
2023-02-15T14:14:27.371Z,59.03
2023-02-15T14:19:40.896Z,59.70
2023-02-15T14:22:19.956Z,58.60
2023-02-15T14:24:53.427Z,62.40
2023-02-15T14:30:05.496Z,59.30
2023-02-15T14:32:47.415Z,57.60
2023-02-15T14:35:44.820Z,56.40
2023-02-15T14:38:19.362Z,57.60
2023-02-15T14:41:02.382Z,55.88
2023-02-15T14:43:36.707Z,55.13
2023-02-15T14:46:06.119Z,55.10
2023-02-15T14:48:43.426Z,55.33
2023-02-15T14:51:39.703Z,59.47
2023-02-15T14:54:22.677Z,64.53
2023-02-15T14:57:04.011Z,59.15
2023-02-15T14:59:46.474Z,54.35
2023-02-15T15:02:20.359Z,55.15
2023-02-15T15:04:57.771Z,56.45
2023-02-15T15:07:53.789Z,57.28
2023-02-15T15:10:21.641Z,58.97
2023-02-15T15:12:55.153Z,55.03
2023-02-15T15:18:31.341Z,54.15
2023-02-15T15:21:03.027Z,54.72
2023-02-15T15:23:42.639Z,55.38
2023-02-15T15:26:24.030Z,54.45
2023-02-15T15:28:50.807Z,54.63
2023-02-15T15:31:32.138Z,55.42
2023-02-15T15:34:08.989Z,53.97
2023-02-15T15:36:56.482Z,55.53
2023-02-15T15:39:43.532Z,53.78
2023-02-15T15:42:32.484Z,53.92
2023-02-15T15:45:25.810Z,53.70
2023-02-15T15:48:34.499Z,55.28
2023-02-15T15:51:03.320Z,54.35
2023-02-15T15:53:35.598Z,54.22
2023-02-15T15:56:06.407Z,51.85
2023-02-15T15:58:37.291Z,56.13
2023-02-15T16:01:14.876Z,57.08
2023-02-15T16:03:57.571Z,57.72
2023-02-15T16:06:30.362Z,60.05
2023-02-15T16:09:00.268Z,71.45
2023-02-15T16:11:34.765Z,65.57
2023-02-15T16:14:02.391Z,63.38
2023-02-15T16:16:34.995Z,65.22
2023-02-15T16:19:04.753Z,57.05
2023-02-15T16:21:38.098Z,57.53
2023-02-15T16:24:25.047Z,85.97
2023-02-15T16:26:59.939Z,73.40
2023-02-15T16:29:35.396Z,63.00
2023-02-15T16:32:05.619Z,58.33
2023-02-15T16:34:35.943Z,60.03
2023-02-15T16:37:24.519Z,60.05
2023-02-15T16:39:53.793Z,60.42
2023-02-15T16:42:25.559Z,59.10
2023-02-15T16:45:16.779Z,58.50
2023-02-15T16:47:47.655Z,57.63
2023-02-15T16:50:22.031Z,56.50
2023-02-15T16:52:52.902Z,57.97
2023-02-15T16:55:27.696Z,54.38
2023-02-15T16:58:19.284Z,56.70
2023-02-15T17:00:47.099Z,54.38
2023-02-15T17:03:26.667Z,55.85
2023-02-15T17:06:07.978Z,55.90
2023-02-15T17:08:46.320Z,54.28
2023-02-15T17:11:21.908Z,53.00
2023-02-15T17:14:05.167Z,54.45
2023-02-15T17:16:52.378Z,55.47
2023-02-15T17:19:30.822Z,56.88
2023-02-15T17:22:04.271Z,55.92
2023-02-15T17:24:44.597Z,55.88
2023-02-15T17:27:18.115Z,61.30
2023-02-15T17:29:53.211Z,56.97
2023-02-15T17:32:22.614Z,57.03
2023-02-15T17:35:04.300Z,58.08
2023-02-15T17:37:36.899Z,55.40
2023-02-15T17:40:16.209Z,62.25
2023-02-15T17:42:43.793Z,63.00
2023-02-15T17:45:13.642Z,60.67
2023-02-15T17:47:46.996Z,67.93
2023-02-15T17:50:27.713Z,64.75
2023-02-15T17:53:02.591Z,58.38
2023-02-15T17:55:42.131Z,53.60
2023-02-15T17:58:20.798Z,54.95
2023-02-15T18:01:08.305Z,57.78
2023-02-15T18:04:04.255Z,57.88
2023-02-15T18:06:50.572Z,57.90
2023-02-15T18:09:42.730Z,56.65
2023-02-15T18:12:43.201Z,57.75
2023-02-15T18:15:15.296Z,57.00
2023-02-15T18:17:53.918Z,56.22
2023-02-15T18:21:58.802Z,54.88
2023-02-15T18:24:28.197Z,56.90
2023-02-15T18:26:55.535Z,60.90
2023-02-15T18:29:22.802Z,63.33
2023-02-15T18:31:53.334Z,58.03
2023-02-15T18:34:26.707Z,56.78
2023-02-15T18:36:53.970Z,58.80
2023-02-15T18:39:40.218Z,52.05
2023-02-15T18:42:14.064Z,51.40
2023-02-15T18:47:10.889Z,48.30
2023-02-15T18:49:37.720Z,52.50
2023-02-15T18:52:04.739Z,51.42
2023-02-15T18:54:34.192Z,52.70
2023-02-15T18:57:01.806Z,52.88
2023-02-15T18:59:32.784Z,52.90
2023-02-15T19:02:00.589Z,57.35
2023-02-15T19:04:27.900Z,60.25
2023-02-15T19:06:54.949Z,58.83
2023-02-15T19:09:25.239Z,57.10
2023-02-15T19:11:54.188Z,54.60
2023-02-15T19:14:26.502Z,62.25
2023-02-15T19:16:56.457Z,62.58
2023-02-15T19:19:23.624Z,67.65
2023-02-15T19:21:50.794Z,58.83
2023-02-15T19:24:20.095Z,56.45
2023-02-15T19:26:47.151Z,57.33
2023-02-15T19:29:14.925Z,54.50
2023-02-15T19:31:41.906Z,53.42
2023-02-15T19:34:16.868Z,55.10
2023-02-15T19:36:44.649Z,58.50
2023-02-15T19:39:25.506Z,55.97
2023-02-15T19:41:52.282Z,55.88
2023-02-15T19:44:19.179Z,57.58
2023-02-15T19:46:48.516Z,58.15
2023-02-15T19:49:21.259Z,54.22
2023-02-15T19:51:50.010Z,58.05
2023-02-15T19:54:28.634Z,56.35
2023-02-15T19:56:55.583Z,56.72
2023-02-15T19:59:27.120Z,53.15
2023-02-15T20:01:54.617Z,54.50
2023-02-15T20:04:21.674Z,53.53
2023-02-15T20:06:49.952Z,54.13
2023-02-15T20:09:18.953Z,56.40
2023-02-15T20:11:45.741Z,56.38
2023-02-15T20:14:13.150Z,57.97
2023-02-15T20:16:39.920Z,55.55
2023-02-15T20:19:06.756Z,53.88
2023-02-15T20:21:33.454Z,55.88
2023-02-15T20:24:00.867Z,55.50
2023-02-15T20:26:29.888Z,55.20
2023-02-15T20:28:56.920Z,48.22
2023-02-15T20:31:25.581Z,49.20
2023-02-15T20:33:52.600Z,54.95
2023-02-15T20:36:20.471Z,56.13
2023-02-15T20:38:47.269Z,52.22
2023-02-15T20:41:34.527Z,47.75
2023-02-15T20:44:02.084Z,44.85
2023-02-15T20:46:28.929Z,46.15
2023-02-15T20:48:55.618Z,46.13
2023-02-15T20:51:22.380Z,46.35
2023-02-15T20:53:50.327Z,52.20
2023-02-15T20:56:20.795Z,57.58
2023-02-15T20:58:47.950Z,51.17
2023-02-15T21:01:14.804Z,48.72
2023-02-15T21:03:41.835Z,54.10
2023-02-15T21:06:12.341Z,47.88
2023-02-15T21:08:39.159Z,48.67
2023-02-15T21:11:06.029Z,48.33
2023-02-15T21:13:34.058Z,51.25
2023-02-15T21:16:01.608Z,47.55
2023-02-15T21:18:29.785Z,48.05
2023-02-15T21:20:58.024Z,47.67
2023-02-15T21:23:28.449Z,46.75
2023-02-15T21:25:56.218Z,45.67
2023-02-15T21:28:25.285Z,45.08
2023-02-15T21:30:52.645Z,48.83
2023-02-15T21:33:19.351Z,47.83
2023-02-15T21:35:50.153Z,47.35
2023-02-15T21:38:18.132Z,45.33
2023-02-15T21:40:45.040Z,46.78
2023-02-15T21:43:39.064Z,45.65
2023-02-15T21:46:44.771Z,44.10
2023-02-15T21:49:11.688Z,42.65
2023-02-15T21:51:57.319Z,45.30
2023-02-15T21:54:24.613Z,45.25
2023-02-15T21:56:54.128Z,47.15
2023-02-15T21:59:21.002Z,49.80
2023-02-15T22:01:49.197Z,48.67
2023-02-15T22:04:26.518Z,49.35
2023-02-15T22:06:53.571Z,47.88
2023-02-15T22:09:21.459Z,47.08
2023-02-15T22:11:48.687Z,45.50
2023-02-15T22:14:27.662Z,47.00
2023-02-15T22:16:54.376Z,47.22
2023-02-15T22:19:21.108Z,44.05
2023-02-15T22:21:47.879Z,48.20
2023-02-15T22:24:14.740Z,48.50
2023-02-15T22:26:41.697Z,46.72
2023-02-15T22:29:13.849Z,48.53
2023-02-15T22:31:40.715Z,47.15
2023-02-15T22:34:10.233Z,46.08
2023-02-15T22:36:36.914Z,45.22
2023-02-15T22:39:04.248Z,43.20
2023-02-15T22:41:31.248Z,43.38
2023-02-15T22:43:58.040Z,42.95
2023-02-15T22:46:25.352Z,38.95
2023-02-15T22:48:52.219Z,39.17
2023-02-15T22:51:20.281Z,38.90
2023-02-15T22:53:49.653Z,38.15
2023-02-15T22:56:18.444Z,39.22
2023-02-15T22:58:45.446Z,40.65
2023-02-15T23:01:22.978Z,38.65
2023-02-15T23:03:49.823Z,36.63
2023-02-15T23:06:16.691Z,39.42
2023-02-15T23:08:43.391Z,38.65
2023-02-15T23:11:12.118Z,40.72
2023-02-15T23:13:38.994Z,36.53
2023-02-15T23:16:07.307Z,37.28
2023-02-15T23:18:39.309Z,38.88
2023-02-15T23:21:21.244Z,36.70
2023-02-15T23:23:50.231Z,36.45
2023-02-15T23:26:21.976Z,34.15
2023-02-15T23:28:49.134Z,38.90
2023-02-15T23:31:16.237Z,37.40
2023-02-15T23:33:43.455Z,41.17
2023-02-15T23:36:33.577Z,45.25
2023-02-15T23:39:22.696Z,46.58
2023-02-15T23:41:49.530Z,44.80
2023-02-15T23:44:16.642Z,43.63
2023-02-15T23:46:44.977Z,47.15
2023-02-15T23:49:15.465Z,45.25
2023-02-15T23:51:43.237Z,44.35
2023-02-15T23:54:10.326Z,45.60
2023-02-15T23:56:38.359Z,41.25
2023-02-15T23:59:05.414Z,44.90
